Time;durP1;ratioP1;P1;durP2;ratioP2;P2;SDS_P1;SDS_P2;PMS_P1;PMS_P2;Temp;Humidity;BMP_temperature;BMP_pressure;BME280_temperature;BME280_humidity;BME280_pressure;Samples;Min_cycle;Max_cycle;Signal;HPM_P1;HPM_P2
2021/11/23 00:00:27;;;;;;;11.90;9.63;;;;;;;;;;5034133;28;20315;-77
2021/11/23 00:02:55;;;;;;;17.15;12.60;;;;;;;;;;5033951;28;20283;-77
2021/11/23 00:05:23;;;;;;;16.88;11.48;;;;;;;;;;5034136;28;20202;-77
2021/11/23 00:07:50;;;;;;;20.52;11.32;;;;;;;;;;5033987;28;20619;-77
2021/11/23 00:10:17;;;;;;;15.35;11.98;;;;;;;;;;5034089;28;20196;-77
2021/11/23 00:12:45;;;;;;;18.17;11.77;;;;;;;;;;5033677;28;20310;-78
2021/11/23 00:15:12;;;;;;;14.35;10.82;;;;;;;;;;5032669;28;20717;-77
2021/11/23 00:17:39;;;;;;;13.63;11.40;;;;;;;;;;5033440;28;20196;-76
2021/11/23 00:20:09;;;;;;;15.82;11.35;;;;;;;;;;5034001;28;20314;-77
2021/11/23 00:22:37;;;;;;;16.20;11.20;;;;;;;;;;5033915;28;20282;-76
2021/11/23 00:25:05;;;;;;;12.32;11.13;;;;;;;;;;5033771;28;20706;-77
2021/11/23 00:27:32;;;;;;;13.10;10.45;;;;;;;;;;5033673;28;20199;-77
2021/11/23 00:30:01;;;;;;;14.93;11.45;;;;;;;;;;5033761;28;20623;-77
2021/11/23 00:32:28;;;;;;;15.57;11.93;;;;;;;;;;5033324;28;20203;-77
2021/11/23 00:34:55;;;;;;;14.18;11.38;;;;;;;;;;5033701;28;20294;-76
2021/11/23 00:37:24;;;;;;;14.63;11.55;;;;;;;;;;5034031;28;20740;-77
2021/11/23 00:39:51;;;;;;;15.40;11.50;;;;;;;;;;5033736;28;20247;-77
2021/11/23 00:42:18;;;;;;;13.10;10.93;;;;;;;;;;5033359;28;20193;-77
2021/11/23 00:44:46;;;;;;;16.25;12.40;;;;;;;;;;5033176;28;20199;-77
2021/11/23 00:47:13;;;;;;;13.00;11.70;;;;;;;;;;5033970;28;20306;-77
2021/11/23 00:49:40;;;;;;;16.88;11.35;;;;;;;;;;5033429;28;20290;-76
2021/11/23 00:52:08;;;;;;;18.27;10.68;;;;;;;;;;5033508;28;20280;-76
2021/11/23 00:54:36;;;;;;;12.55;11.35;;;;;;;;;;5033601;28;20287;-76
2021/11/23 00:57:04;;;;;;;14.43;11.93;;;;;;;;;;5033046;28;20243;-77
2021/11/23 00:59:34;;;;;;;14.02;11.45;;;;;;;;;;5032999;28;20380;-76
2021/11/23 01:02:01;;;;;;;14.05;11.65;;;;;;;;;;5033680;28;20195;-77
2021/11/23 01:04:28;;;;;;;13.00;11.27;;;;;;;;;;5033284;28;20203;-77
2021/11/23 01:06:55;;;;;;;19.65;12.60;;;;;;;;;;5033264;28;20283;-78
2021/11/23 01:09:22;;;;;;;15.38;11.80;;;;;;;;;;5032930;28;20291;-78
2021/11/23 01:11:51;;;;;;;14.45;10.60;;;;;;;;;;5032941;28;20706;-77
2021/11/23 01:14:18;;;;;;;17.27;10.57;;;;;;;;;;5033221;28;20288;-78
2021/11/23 01:16:48;;;;;;;14.77;11.57;;;;;;;;;;5033239;28;20199;-77
2021/11/23 01:19:15;;;;;;;14.70;12.68;;;;;;;;;;5033120;28;20223;-77
2021/11/23 01:21:43;;;;;;;17.58;11.15;;;;;;;;;;5033580;28;20306;-76
2021/11/23 01:24:10;;;;;;;12.00;10.30;;;;;;;;;;5033367;28;20279;-76
2021/11/23 01:26:37;;;;;;;15.80;11.15;;;;;;;;;;5036133;28;20234;-76
2021/11/23 01:29:06;;;;;;;14.02;11.63;;;;;;;;;;5036805;28;20560;-76
2021/11/23 01:31:34;;;;;;;14.43;12.07;;;;;;;;;;5036848;28;20292;-76
2021/11/23 01:34:01;;;;;;;14.55;11.88;;;;;;;;;;5036670;28;20302;-77
2021/11/23 01:36:28;;;;;;;12.57;10.35;;;;;;;;;;5036302;28;20202;-77
2021/11/23 01:38:55;;;;;;;16.60;11.45;;;;;;;;;;5036548;28;20294;-77
2021/11/23 01:41:23;;;;;;;13.73;10.82;;;;;;;;;;5036525;28;20657;-77
2021/11/23 01:43:51;;;;;;;12.55;10.65;;;;;;;;;;5036276;28;20228;-77
2021/11/23 01:46:20;;;;;;;19.30;12.35;;;;;;;;;;5036789;28;20250;-77
2021/11/23 01:48:47;;;;;;;14.13;11.48;;;;;;;;;;5036918;28;20626;-77
2021/11/23 01:51:14;;;;;;;13.93;11.50;;;;;;;;;;5036144;28;20712;-76
2021/11/23 01:53:41;;;;;;;12.18;10.65;;;;;;;;;;5036004;28;20291;-77
2021/11/23 01:56:09;;;;;;;11.80;10.57;;;;;;;;;;5035996;28;20290;-76
2021/11/23 01:58:36;;;;;;;14.60;10.57;;;;;;;;;;5036200;28;20193;-76
2021/11/23 02:01:06;;;;;;;13.95;11.07;;;;;;;;;;5036107;28;20223;-77
2021/11/23 02:03:35;;;;;;;17.50;12.20;;;;;;;;;;5036157;28;20199;-76
2021/11/23 02:06:02;;;;;;;16.85;11.00;;;;;;;;;;5036649;28;20284;-76
2021/11/23 02:08:29;;;;;;;12.93;10.68;;;;;;;;;;5036053;28;20223;-76
2021/11/23 02:10:57;;;;;;;12.18;10.35;;;;;;;;;;5036083;28;20299;-75
2021/11/23 02:13:25;;;;;;;12.73;10.45;;;;;;;;;;5036724;28;20228;-76
2021/11/23 02:15:54;;;;;;;12.50;9.85;;;;;;;;;;5035877;28;20205;-76
2021/11/23 02:18:23;;;;;;;12.07;10.88;;;;;;;;;;5035865;28;20196;-76
2021/11/23 02:20:53;;;;;;;14.40;10.13;;;;;;;;;;5035340;28;20682;-77
2021/11/23 02:23:20;;;;;;;10.15;9.15;;;;;;;;;;5035315;28;20278;-76
2021/11/23 02:25:48;;;;;;;12.80;10.27;;;;;;;;;;5035902;28;20278;-76
2021/11/23 02:28:16;;;;;;;12.75;9.85;;;;;;;;;;5035270;28;20224;-76
2021/11/23 02:30:45;;;;;;;11.30;10.20;;;;;;;;;;5035230;28;20665;-77
2021/11/23 02:33:13;;;;;;;15.82;10.73;;;;;;;;;;5035598;28;20206;-76
2021/11/23 02:35:40;;;;;;;12.90;9.80;;;;;;;;;;5035566;28;20291;-76
2021/11/23 02:38:09;;;;;;;11.73;10.02;;;;;;;;;;5034496;28;20287;-77
2021/11/23 02:40:36;;;;;;;13.82;10.07;;;;;;;;;;5035396;28;20621;-77
2021/11/23 02:43:04;;;;;;;14.25;10.35;;;;;;;;;;5035402;28;20199;-77
2021/11/23 02:45:31;;;;;;;13.13;10.40;;;;;;;;;;5035067;28;20283;-77
2021/11/23 02:47:59;;;;;;;13.75;11.30;;;;;;;;;;5035809;28;20620;-77
2021/11/23 02:50:27;;;;;;;12.77;10.52;;;;;;;;;;5035013;28;20288;-77
2021/11/23 02:52:54;;;;;;;14.38;10.40;;;;;;;;;;5034916;28;20308;-76
2021/11/23 02:55:25;;;;;;;13.95;10.40;;;;;;;;;;5034856;28;20286;-76
2021/11/23 02:57:53;;;;;;;12.57;11.25;;;;;;;;;;5034818;28;20202;-76
2021/11/23 03:00:21;;;;;;;12.40;9.85;;;;;;;;;;5035071;28;20312;-76
2021/11/23 03:02:49;;;;;;;13.18;9.88;;;;;;;;;;5035528;28;20236;-76
2021/11/23 03:05:18;;;;;;;12.57;11.27;;;;;;;;;;5035027;28;20283;-76
2021/11/23 03:07:46;;;;;;;15.20;12.05;;;;;;;;;;5035213;28;20232;-77
2021/11/23 03:10:13;;;;;;;14.82;12.90;;;;;;;;;;5034668;28;20242;-77
2021/11/23 03:12:42;;;;;;;17.17;11.55;;;;;;;;;;5034508;28;20311;-77
2021/11/23 03:15:10;;;;;;;14.73;11.63;;;;;;;;;;5034793;28;20279;-76
2021/11/23 03:17:38;;;;;;;15.82;11.30;;;;;;;;;;5034731;28;20286;-77
2021/11/23 03:20:06;;;;;;;18.95;11.93;;;;;;;;;;5034660;28;20228;-76
2021/11/23 03:22:33;;;;;;;14.75;12.32;;;;;;;;;;5034370;28;20203;-77
2021/11/23 03:25:01;;;;;;;14.65;11.48;;;;;;;;;;5034754;28;20563;-76
2021/11/23 03:27:28;;;;;;;20.65;10.63;;;;;;;;;;5034826;28;20246;-76
2021/11/23 03:29:57;;;;;;;13.45;11.48;;;;;;;;;;5034541;28;20302;-76
2021/11/23 03:32:24;;;;;;;16.10;11.93;;;;;;;;;;5034710;28;20306;-76
2021/11/23 03:34:51;;;;;;;11.95;10.57;;;;;;;;;;5034420;28;20621;-76
2021/11/23 03:37:21;;;;;;;13.20;10.43;;;;;;;;;;5034143;28;20208;-76
2021/11/23 03:39:48;;;;;;;17.40;10.82;;;;;;;;;;5034278;28;20573;-75
2021/11/23 03:42:16;;;;;;;14.07;9.77;;;;;;;;;;5034210;28;20253;-76
2021/11/23 03:44:44;;;;;;;11.45;10.30;;;;;;;;;;5034262;28;20201;-76
2021/11/23 03:47:14;;;;;;;12.32;10.35;;;;;;;;;;5034215;28;20193;-77
2021/11/23 03:49:43;;;;;;;10.77;9.68;;;;;;;;;;5033635;28;20201;-76
2021/11/23 03:52:10;;;;;;;15.35;9.68;;;;;;;;;;5034118;28;20223;-77
2021/11/23 03:54:38;;;;;;;12.57;10.35;;;;;;;;;;5033744;28;20204;-77
2021/11/23 03:57:05;;;;;;;11.45;9.13;;;;;;;;;;5033640;28;20290;-76
2021/11/23 03:59:33;;;;;;;19.75;10.63;;;;;;;;;;5033874;28;20280;-76
2021/11/23 04:02:00;;;;;;;11.10;9.98;;;;;;;;;;5033919;28;20197;-76
2021/11/23 04:04:29;;;;;;;20.65;9.85;;;;;;;;;;5033947;28;20228;-76
2021/11/23 04:06:57;;;;;;;11.48;10.00;;;;;;;;;;5033918;28;20259;-75
2021/11/23 04:09:25;;;;;;;17.25;10.98;;;;;;;;;;5033535;28;20284;-75
2021/11/23 04:11:52;;;;;;;13.30;9.65;;;;;;;;;;5033843;28;20318;-76
2021/11/23 04:14:19;;;;;;;11.02;9.52;;;;;;;;;;5033834;28;20676;-75
2021/11/23 04:16:46;;;;;;;14.68;11.18;;;;;;;;;;5033507;28;20206;-75
2021/11/23 04:19:14;;;;;;;11.35;9.63;;;;;;;;;;5033739;28;20290;-76
2021/11/23 04:21:42;;;;;;;14.57;11.40;;;;;;;;;;5033642;28;20226;-75
2021/11/23 04:24:10;;;;;;;14.55;10.85;;;;;;;;;;5033390;28;20668;-75
2021/11/23 04:26:37;;;;;;;18.10;12.35;;;;;;;;;;5034270;28;20232;-75
2021/11/23 04:29:04;;;;;;;16.13;11.18;;;;;;;;;;5033614;28;20302;-74
2021/11/23 04:31:31;;;;;;;13.32;11.50;;;;;;;;;;5033290;28;20286;-74
2021/11/23 04:33:58;;;;;;;15.13;11.38;;;;;;;;;;5033730;28;20282;-74
2021/11/23 04:36:26;;;;;;;16.45;12.15;;;;;;;;;;5033796;28;20284;-74
2021/11/23 04:38:54;;;;;;;14.43;11.98;;;;;;;;;;5033260;28;20286;-72
2021/11/23 04:41:21;;;;;;;16.95;12.50;;;;;;;;;;5033449;28;20304;-71
2021/11/23 04:43:49;;;;;;;18.65;11.80;;;;;;;;;;5033836;28;20347;-71
2021/11/23 04:46:16;;;;;;;13.45;11.65;;;;;;;;;;5033891;28;20295;-72
2021/11/23 04:48:43;;;;;;;21.23;11.60;;;;;;;;;;5033811;28;20598;-72
2021/11/23 04:51:10;;;;;;;19.75;12.13;;;;;;;;;;5033369;28;20614;-71
2021/11/23 04:53:38;;;;;;;15.05;12.20;;;;;;;;;;5034089;28;20287;-72
2021/11/23 04:56:06;;;;;;;15.40;11.15;;;;;;;;;;5033327;28;20204;-71
2021/11/23 04:58:34;;;;;;;13.57;11.05;;;;;;;;;;5033336;28;20202;-70
2021/11/23 05:01:01;;;;;;;13.88;12.05;;;;;;;;;;5035196;28;20688;-71
2021/11/23 05:03:28;;;;;;;13.20;10.75;;;;;;;;;;5037156;28;20282;-72
2021/11/23 05:05:56;;;;;;;13.90;11.63;;;;;;;;;;5037121;28;20290;-71
2021/11/23 05:08:23;;;;;;;13.30;11.50;;;;;;;;;;5036899;28;20202;-71
2021/11/23 05:10:50;;;;;;;17.00;12.90;;;;;;;;;;5036939;28;20206;-70
2021/11/23 05:13:19;;;;;;;23.83;14.13;;;;;;;;;;5037083;28;20638;-70
2021/11/23 05:15:46;;;;;;;21.98;13.45;;;;;;;;;;5037112;28;20621;-68
2021/11/23 05:18:13;;;;;;;15.77;11.80;;;;;;;;;;5036761;28;20195;-68
2021/11/23 05:20:40;;;;;;;18.58;14.20;;;;;;;;;;5036636;28;20230;-68
2021/11/23 05:23:08;;;;;;;20.45;14.38;;;;;;;;;;5036966;28;20283;-68
2021/11/23 05:25:35;;;;;;;18.30;14.55;;;;;;;;;;5036547;28;20255;-68
2021/11/23 05:28:02;;;;;;;23.02;15.70;;;;;;;;;;5036833;28;20282;-68
2021/11/23 05:30:31;;;;;;;19.65;15.45;;;;;;;;;;5036326;28;20285;-68
2021/11/23 05:32:58;;;;;;;23.00;17.40;;;;;;;;;;5035478;28;20287;-68
2021/11/23 05:35:25;;;;;;;22.15;16.92;;;;;;;;;;5036672;28;20278;-68
2021/11/23 05:37:52;;;;;;;25.00;18.27;;;;;;;;;;5036604;28;20642;-69
2021/11/23 05:40:19;;;;;;;25.00;20.40;;;;;;;;;;5036522;28;20226;-69
2021/11/23 05:42:47;;;;;;;26.40;20.38;;;;;;;;;;5036650;28;20284;-69
2021/11/23 05:45:14;;;;;;;31.48;22.95;;;;;;;;;;5036513;28;20292;-68
2021/11/23 05:47:43;;;;;;;27.05;20.52;;;;;;;;;;5036572;28;20625;-69
2021/11/23 05:50:10;;;;;;;26.50;19.85;;;;;;;;;;5036449;28;20656;-68
2021/11/23 05:52:38;;;;;;;29.67;22.77;;;;;;;;;;5036028;28;20191;-69
2021/11/23 05:55:05;;;;;;;30.00;22.35;;;;;;;;;;5036275;28;20201;-67
2021/11/23 05:57:33;;;;;;;32.60;23.05;;;;;;;;;;5036282;28;20616;-69
2021/11/23 06:00:00;;;;;;;31.90;22.48;;;;;;;;;;5036476;28;20279;-70
2021/11/23 06:02:28;;;;;;;31.70;23.25;;;;;;;;;;5035672;28;20224;-69
2021/11/23 06:04:59;;;;;;;31.60;22.17;;;;;;;;;;5035798;28;20200;-70
2021/11/23 06:07:26;;;;;;;34.42;23.13;;;;;;;;;;5036421;28;20195;-70
2021/11/23 06:09:53;;;;;;;27.50;21.52;;;;;;;;;;5036489;28;20606;-69
2021/11/23 06:12:21;;;;;;;32.85;24.13;;;;;;;;;;5035896;28;20264;-69
2021/11/23 06:14:48;;;;;;;28.85;21.60;;;;;;;;;;5035594;28;20208;-68
2021/11/23 06:17:15;;;;;;;30.67;21.90;;;;;;;;;;5035576;28;20291;-68
2021/11/23 06:19:43;;;;;;;30.35;21.88;;;;;;;;;;5036413;28;20227;-69
2021/11/23 06:22:12;;;;;;;28.10;22.33;;;;;;;;;;5035963;28;20302;-68
2021/11/23 06:24:49;;;;;;;29.70;22.55;;;;;;;;;;5035848;28;20197;-69
2021/11/23 06:27:21;;;;;;;30.92;20.23;;;;;;;;;;5035717;28;20186;-69
2021/11/23 06:29:48;;;;;;;32.03;20.02;;;;;;;;;;5035850;28;20189;-70
2021/11/23 06:32:17;;;;;;;31.02;22.33;;;;;;;;;;5035132;28;20625;-70
2021/11/23 06:34:50;;;;;;;28.73;21.02;;;;;;;;;;5035271;28;20198;-71
2021/11/23 06:37:23;;;;;;;30.08;20.60;;;;;;;;;;5035725;28;20275;-69
2021/11/23 06:39:53;;;;;;;30.42;21.95;;;;;;;;;;5035542;28;20193;-70
2021/11/23 06:42:23;;;;;;;30.80;20.20;;;;;;;;;;5035074;28;20264;-70
2021/11/23 06:44:51;;;;;;;32.65;21.52;;;;;;;;;;5035864;28;20239;-68
2021/11/23 06:47:20;;;;;;;32.85;21.70;;;;;;;;;;5035224;28;20244;-69
2021/11/23 06:49:48;;;;;;;26.65;20.02;;;;;;;;;;5035362;28;20244;-70
2021/11/23 06:52:16;;;;;;;26.85;19.70;;;;;;;;;;5035562;28;20206;-70
2021/11/23 06:54:44;;;;;;;28.90;19.25;;;;;;;;;;5035174;28;20296;-70
2021/11/23 06:57:12;;;;;;;26.65;20.38;;;;;;;;;;5035164;28;20283;-70
2021/11/23 06:59:39;;;;;;;31.60;20.83;;;;;;;;;;5035388;28;20279;-70
2021/11/23 07:02:06;;;;;;;31.42;22.25;;;;;;;;;;5034664;28;20229;-70
2021/11/23 07:04:34;;;;;;;30.58;20.42;;;;;;;;;;5034956;28;20200;-71
2021/11/23 07:07:01;;;;;;;25.50;19.95;;;;;;;;;;5035207;28;20233;-70
2021/11/23 07:09:28;;;;;;;23.30;18.42;;;;;;;;;;5034619;28;20283;-71
2021/11/23 07:11:57;;;;;;;27.20;19.92;;;;;;;;;;5035197;28;20277;-71
2021/11/23 07:14:24;;;;;;;27.40;19.67;;;;;;;;;;5036181;28;20227;-70
2021/11/23 07:16:52;;;;;;;27.00;18.85;;;;;;;;;;5034780;28;20282;-70
2021/11/23 07:19:19;;;;;;;29.02;20.55;;;;;;;;;;5034470;28;20284;-70
2021/11/23 07:21:47;;;;;;;27.25;19.30;;;;;;;;;;5034816;28;20306;-71
2021/11/23 07:24:14;;;;;;;28.33;20.02;;;;;;;;;;5034059;28;20290;-71
2021/11/23 07:26:41;;;;;;;23.50;18.80;;;;;;;;;;5034537;28;20193;-71
2021/11/23 07:29:10;;;;;;;28.08;17.70;;;;;;;;;;5034122;28;20233;-71
2021/11/23 07:31:37;;;;;;;31.92;20.75;;;;;;;;;;5034336;28;20286;-72
2021/11/23 07:34:05;;;;;;;32.35;20.08;;;;;;;;;;5034442;28;20200;-71
2021/11/23 07:36:32;;;;;;;32.85;23.85;;;;;;;;;;5034610;28;20604;-71
2021/11/23 07:39:01;;;;;;;29.15;21.02;;;;;;;;;;5034014;28;20242;-71
2021/11/23 07:41:28;;;;;;;31.58;21.30;;;;;;;;;;5034405;28;20228;-72
2021/11/23 07:43:55;;;;;;;26.10;20.65;;;;;;;;;;5033880;28;20231;-72
2021/11/23 07:46:25;;;;;;;29.40;20.80;;;;;;;;;;5033954;28;20283;-71
2021/11/23 07:48:53;;;;;;;21.40;15.27;;;;;;;;;;5034200;28;20199;-71
2021/11/23 07:51:21;;;;;;;27.15;20.08;;;;;;;;;;5034114;28;20207;-71
2021/11/23 07:53:48;;;;;;;25.60;18.77;;;;;;;;;;5034069;28;20235;-71
2021/11/23 07:56:15;;;;;;;30.63;20.65;;;;;;;;;;5033859;28;20644;-71
2021/11/23 07:58:42;;;;;;;24.33;19.60;;;;;;;;;;5033668;28;20283;-71
2021/11/23 08:01:10;;;;;;;29.65;21.45;;;;;;;;;;5034059;28;20227;-71
2021/11/23 08:03:38;;;;;;;27.88;20.00;;;;;;;;;;5033660;28;20748;-71
2021/11/23 08:06:07;;;;;;;27.40;19.83;;;;;;;;;;5033876;28;20290;-71
2021/11/23 08:08:34;;;;;;;29.55;20.35;;;;;;;;;;5033538;28;20201;-72
2021/11/23 08:11:02;;;;;;;30.00;21.73;;;;;;;;;;5033453;28;20294;-71
2021/11/23 08:13:29;;;;;;;29.83;20.42;;;;;;;;;;5034146;28;20219;-71
2021/11/23 08:15:56;;;;;;;31.80;19.70;;;;;;;;;;5033748;28;20231;-71
2021/11/23 08:18:24;;;;;;;36.22;21.20;;;;;;;;;;5033752;28;20231;-71
2021/11/23 08:20:53;;;;;;;30.75;20.05;;;;;;;;;;5033777;28;20570;-72
2021/11/23 08:23:20;;;;;;;31.67;19.55;;;;;;;;;;5033374;28;20191;-71
2021/11/23 08:25:47;;;;;;;31.42;21.90;;;;;;;;;;5033954;28;20284;-72
2021/11/23 08:28:15;;;;;;;26.77;19.60;;;;;;;;;;5033856;28;20192;-71
2021/11/23 08:30:43;;;;;;;37.70;22.65;;;;;;;;;;5033499;28;20200;-71
2021/11/23 08:33:10;;;;;;;35.60;21.88;;;;;;;;;;5033592;28;20261;-72
2021/11/23 08:35:37;;;;;;;32.80;21.50;;;;;;;;;;5032575;28;20284;-72
2021/11/23 08:38:06;;;;;;;34.25;21.77;;;;;;;;;;5033540;28;20227;-71
2021/11/23 08:40:33;;;;;;;40.13;22.52;;;;;;;;;;5033573;28;20228;-72
2021/11/23 08:43:01;;;;;;;45.85;22.25;;;;;;;;;;5033590;28;20229;-71
2021/11/23 08:45:28;;;;;;;34.78;20.85;;;;;;;;;;5034048;28;20223;-71
2021/11/23 08:47:55;;;;;;;44.55;21.30;;;;;;;;;;5033262;28;20292;-72
2021/11/23 08:50:22;;;;;;;44.13;21.52;;;;;;;;;;5033403;28;20192;-71
2021/11/23 08:52:50;;;;;;;32.78;21.88;;;;;;;;;;5033964;28;20218;-71
2021/11/23 08:55:19;;;;;;;33.83;22.98;;;;;;;;;;5033757;28;20203;-71
2021/11/23 08:57:46;;;;;;;36.78;23.73;;;;;;;;;;5033304;28;20288;-71
2021/11/23 09:00:17;;;;;;;35.67;23.00;;;;;;;;;;5033148;28;20241;-72
2021/11/23 09:02:46;;;;;;;37.92;22.13;;;;;;;;;;5033724;28;20546;-71
2021/11/23 09:05:14;;;;;;;33.40;19.77;;;;;;;;;;5033244;28;20252;-71
2021/11/23 09:07:41;;;;;;;33.08;20.48;;;;;;;;;;5033233;28;20594;-71
2021/11/23 09:10:12;;;;;;;32.10;20.73;;;;;;;;;;5032849;28;20202;-71
2021/11/23 09:12:41;;;;;;;33.88;20.65;;;;;;;;;;5033374;28;20233;-72
2021/11/23 09:15:09;;;;;;;39.15;23.10;;;;;;;;;;5033265;28;20224;-71
2021/11/23 09:17:36;;;;;;;32.60;21.63;;;;;;;;;;5033176;28;20240;-72
2021/11/23 09:20:03;;;;;;;29.98;20.70;;;;;;;;;;5033118;28;20241;-71
2021/11/23 09:22:31;;;;;;;25.17;17.88;;;;;;;;;;5033581;28;20270;-72
2021/11/23 09:24:58;;;;;;;34.63;20.85;;;;;;;;;;5032813;28;20293;-71
2021/11/23 09:27:25;;;;;;;28.50;20.63;;;;;;;;;;5033137;28;20200;-71
2021/11/23 09:29:54;;;;;;;33.53;22.45;;;;;;;;;;5032708;28;20689;-71
2021/11/23 09:32:22;;;;;;;38.70;22.75;;;;;;;;;;5032691;28;20288;-71
2021/11/23 09:34:49;;;;;;;50.28;24.67;;;;;;;;;;5032990;28;20251;-71
2021/11/23 09:37:17;;;;;;;40.00;23.50;;;;;;;;;;5032694;28;20235;-71
2021/11/23 09:39:44;;;;;;;31.77;22.50;;;;;;;;;;5033124;28;20280;-71
2021/11/23 09:42:11;;;;;;;33.47;20.92;;;;;;;;;;5033464;28;20263;-71
2021/11/23 09:44:39;;;;;;;34.85;18.70;;;;;;;;;;5032590;28;20284;-70
2021/11/23 09:47:08;;;;;;;40.65;22.58;;;;;;;;;;5035143;28;20243;-71
2021/11/23 09:49:35;;;;;;;32.47;22.10;;;;;;;;;;5036438;28;20198;-71
2021/11/23 09:52:02;;;;;;;38.17;23.80;;;;;;;;;;5036305;28;20199;-72
2021/11/23 09:54:29;;;;;;;41.80;24.48;;;;;;;;;;5035957;28;20234;-71
2021/11/23 09:56:57;;;;;;;44.05;25.02;;;;;;;;;;5036257;28;20257;-71
2021/11/23 09:59:24;;;;;;;46.47;24.65;;;;;;;;;;5035754;28;20312;-70
2021/11/23 10:01:54;;;;;;;45.72;24.35;;;;;;;;;;5036566;28;20304;-71
2021/11/23 10:04:23;;;;;;;50.53;26.95;;;;;;;;;;5036353;28;20193;-70
2021/11/23 10:06:54;;;;;;;54.33;23.48;;;;;;;;;;5036052;28;20207;-71
2021/11/23 10:09:27;;;;;;;39.60;23.00;;;;;;;;;;5036377;28;20229;-71
2021/11/23 10:11:54;;;;;;;41.92;25.80;;;;;;;;;;5036081;28;20311;-71
2021/11/23 10:14:21;;;;;;;38.65;23.05;;;;;;;;;;5035946;28;20288;-71
2021/11/23 10:16:49;;;;;;;46.35;26.92;;;;;;;;;;5035623;28;20742;-70
2021/11/23 10:19:16;;;;;;;37.58;23.48;;;;;;;;;;5036638;28;20292;-71
2021/11/23 10:21:52;;;;;;;43.45;24.15;;;;;;;;;;5036364;28;20327;-71
2021/11/23 10:24:19;;;;;;;44.20;27.13;;;;;;;;;;5036388;28;20283;-71
2021/11/23 10:26:46;;;;;;;43.15;25.65;;;;;;;;;;5035742;28;20295;-71
2021/11/23 10:29:14;;;;;;;41.95;25.77;;;;;;;;;;5035429;28;20202;-71
2021/11/23 10:31:42;;;;;;;49.30;27.33;;;;;;;;;;5035614;28;20234;-71
2021/11/23 10:34:11;;;;;;;49.03;29.63;;;;;;;;;;5035701;28;20205;-70
2021/11/23 10:36:41;;;;;;;45.75;25.67;;;;;;;;;;5035649;28;20252;-70
2021/11/23 10:39:11;;;;;;;42.15;26.45;;;;;;;;;;5035186;28;20223;-71
2021/11/23 10:41:39;;;;;;;44.92;24.05;;;;;;;;;;5035618;28;20230;-70
2021/11/23 10:44:15;;;;;;;39.50;26.23;;;;;;;;;;5035103;28;20748;-71
2021/11/23 10:46:43;;;;;;;45.70;26.70;;;;;;;;;;5036446;28;20237;-70
2021/11/23 10:49:18;;;;;;;43.15;25.27;;;;;;;;;;5035912;28;20197;-71
2021/11/23 10:51:45;;;;;;;39.92;25.02;;;;;;;;;;5035045;28;20227;-71
2021/11/23 10:54:14;;;;;;;62.17;26.70;;;;;;;;;;5035270;28;20234;-71
2021/11/23 10:56:55;;;;;;;49.50;23.15;;;;;;;;;;5035308;28;20555;-70
2021/11/23 10:59:22;;;;;;;45.40;24.05;;;;;;;;;;5034291;28;20639;-70
2021/11/23 11:01:50;;;;;;;32.75;22.27;;;;;;;;;;5035829;28;20687;-70
2021/11/23 11:04:17;;;;;;;36.28;25.42;;;;;;;;;;5034889;28;20197;-71
2021/11/23 11:06:45;;;;;;;34.92;23.42;;;;;;;;;;5034864;28;20237;-71
2021/11/23 11:09:14;;;;;;;41.75;24.45;;;;;;;;;;5034788;28;20241;-71
2021/11/23 11:11:41;;;;;;;39.40;23.88;;;;;;;;;;5035201;28;20229;-70
2021/11/23 11:14:08;;;;;;;40.97;23.70;;;;;;;;;;5034555;28;20238;-70
2021/11/23 11:16:36;;;;;;;42.78;26.50;;;;;;;;;;5034892;28;20289;-71
2021/11/23 11:19:08;;;;;;;44.90;24.65;;;;;;;;;;5034712;28;20243;-70
2021/11/23 11:21:38;;;;;;;39.63;22.67;;;;;;;;;;5034477;28;20205;-71
2021/11/23 11:24:23;;;;;;;38.65;23.50;;;;;;;;;;5034646;28;20225;-71
2021/11/23 11:26:54;;;;;;;41.72;24.83;;;;;;;;;;5034321;28;20185;-71
2021/11/23 11:29:27;;;;;;;40.45;24.23;;;;;;;;;;5034817;28;20666;-71
2021/11/23 11:31:55;;;;;;;40.47;25.13;;;;;;;;;;5034636;28;20205;-71
2021/11/23 11:34:24;;;;;;;46.78;28.52;;;;;;;;;;5034595;28;20193;-71
2021/11/23 11:36:59;;;;;;;36.70;24.42;;;;;;;;;;5034509;28;20228;-71
2021/11/23 11:39:45;;;;;;;39.90;26.98;;;;;;;;;;5034385;28;20189;-71
2021/11/23 11:42:34;;;;;;;40.60;27.40;;;;;;;;;;5034248;28;20758;-71
2021/11/23 11:45:09;;;;;;;43.97;27.08;;;;;;;;;;5033845;28;20243;-72
2021/11/23 11:47:37;;;;;;;38.97;26.27;;;;;;;;;;5034311;28;20590;-71
2021/11/23 11:50:08;;;;;;;42.25;26.13;;;;;;;;;;5034231;28;20243;-71
2021/11/23 11:52:56;;;;;;;38.38;26.88;;;;;;;;;;5034245;28;20191;-71
2021/11/23 11:55:24;;;;;;;42.30;23.65;;;;;;;;;;5034656;28;20285;-71
2021/11/23 11:57:55;;;;;;;31.73;22.48;;;;;;;;;;5034072;28;20280;-70
2021/11/23 12:00:31;;;;;;;37.97;24.88;;;;;;;;;;5034319;28;20197;-71
2021/11/23 12:03:03;;;;;;;39.97;25.88;;;;;;;;;;5033483;28;20224;-70
2021/11/23 12:05:45;;;;;;;31.05;20.45;;;;;;;;;;5034214;28;20548;-71
2021/11/23 12:08:21;;;;;;;36.10;21.95;;;;;;;;;;5033489;28;20284;-72
2021/11/23 12:10:49;;;;;;;35.10;23.58;;;;;;;;;;5033289;28;20655;-71
2021/11/23 12:13:25;;;;;;;39.38;23.35;;;;;;;;;;5034068;28;20292;-71
2021/11/23 12:15:59;;;;;;;37.33;23.63;;;;;;;;;;5034021;28;20587;-71
2021/11/23 12:18:45;;;;;;;39.20;22.15;;;;;;;;;;5033714;28;20182;-70
2021/11/23 12:21:14;;;;;;;41.50;26.42;;;;;;;;;;5033440;28;20242;-70
2021/11/23 12:23:42;;;;;;;44.72;25.35;;;;;;;;;;5033356;28;20217;-71
2021/11/23 12:26:12;;;;;;;38.13;25.50;;;;;;;;;;5033716;28;20193;-71
2021/11/23 12:28:41;;;;;;;38.30;24.15;;;;;;;;;;5033414;28;20244;-71
2021/11/23 12:31:10;;;;;;;43.78;26.05;;;;;;;;;;5033837;28;20258;-71
2021/11/23 12:33:44;;;;;;;35.78;23.85;;;;;;;;;;5033278;28;20682;-71
2021/11/23 12:36:13;;;;;;;38.25;27.52;;;;;;;;;;5033192;28;20305;-71
2021/11/23 12:38:40;;;;;;;47.22;33.63;;;;;;;;;;5033387;28;20275;-71
2021/11/23 12:41:16;;;;;;;43.22;25.77;;;;;;;;;;5034061;28;20197;-71
2021/11/23 12:43:47;;;;;;;43.85;27.10;;;;;;;;;;5033950;28;20260;-71
2021/11/23 12:46:15;;;;;;;48.90;27.63;;;;;;;;;;5033530;28;20212;-71
2021/11/23 12:48:43;;;;;;;35.35;22.55;;;;;;;;;;5033360;28;20201;-70
2021/11/23 12:51:32;;;;;;;39.00;24.48;;;;;;;;;;5033117;28;20240;-72
2021/11/23 12:54:01;;;;;;;44.78;24.55;;;;;;;;;;5030115;28;20202;-72
2021/11/23 12:56:45;;;;;;;40.15;25.52;;;;;;;;;;5033316;28;20673;-71
2021/11/23 12:59:31;;;;;;;45.85;24.80;;;;;;;;;;5033274;28;20255;-71
2021/11/23 13:02:01;;;;;;;34.08;21.95;;;;;;;;;;5033391;28;20222;-71
2021/11/23 13:04:38;;;;;;;47.08;23.98;;;;;;;;;;5033254;28;20229;-71
2021/11/23 13:07:06;;;;;;;40.15;24.67;;;;;;;;;;5032840;28;20633;-71
2021/11/23 13:09:44;;;;;;;35.47;24.80;;;;;;;;;;5033197;28;20232;-71
2021/11/23 13:12:12;;;;;;;39.92;24.80;;;;;;;;;;5033184;28;20226;-73
2021/11/23 13:14:50;;;;;;;39.55;25.05;;;;;;;;;;5033187;28;20237;-70
2021/11/23 13:17:19;;;;;;;37.13;22.05;;;;;;;;;;5030817;28;20227;-70
2021/11/23 13:19:53;;;;;;;40.58;24.08;;;;;;;;;;5012901;28;20248;-72
2021/11/23 13:22:20;;;;;;;45.83;24.08;;;;;;;;;;5016168;28;20238;-71
2021/11/23 13:24:47;;;;;;;43.63;23.73;;;;;;;;;;5017204;28;20242;-71
2021/11/23 13:27:15;;;;;;;36.85;22.35;;;;;;;;;;5016804;28;20715;-71
2021/11/23 13:29:45;;;;;;;35.78;23.10;;;;;;;;;;5017445;28;20198;-71
2021/11/23 13:32:13;;;;;;;40.17;23.60;;;;;;;;;;5017340;28;20556;-71
2021/11/23 13:34:41;;;;;;;35.97;22.83;;;;;;;;;;5016955;28;20238;-70
2021/11/23 13:37:09;;;;;;;38.90;24.58;;;;;;;;;;5016893;28;20198;-71
2021/11/23 13:39:37;;;;;;;38.38;23.48;;;;;;;;;;5017074;28;20278;-71
2021/11/23 13:42:04;;;;;;;41.33;24.88;;;;;;;;;;5016797;28;20603;-70
2021/11/23 13:44:32;;;;;;;42.63;24.08;;;;;;;;;;5016316;28;20320;-71
2021/11/23 13:47:01;;;;;;;44.33;26.90;;;;;;;;;;5016733;28;20290;-71
2021/11/23 13:49:29;;;;;;;46.05;26.92;;;;;;;;;;5016607;28;20203;-71
2021/11/23 13:52:09;;;;;;;36.58;25.15;;;;;;;;;;5017303;28;20294;-71
2021/11/23 13:54:40;;;;;;;42.72;23.55;;;;;;;;;;5016311;28;20282;-71
2021/11/23 13:57:08;;;;;;;33.67;22.85;;;;;;;;;;5016317;28;20199;-71
2021/11/23 13:59:35;;;;;;;38.38;24.25;;;;;;;;;;5016125;28;20205;-71
2021/11/23 14:02:03;;;;;;;39.17;25.92;;;;;;;;;;5016095;28;20294;-71
2021/11/23 14:04:31;;;;;;;41.55;24.33;;;;;;;;;;5015603;28;20762;-71
2021/11/23 14:06:59;;;;;;;42.83;23.65;;;;;;;;;;5016266;28;20240;-71
2021/11/23 14:09:28;;;;;;;40.00;24.25;;;;;;;;;;5016336;28;20252;-71
2021/11/23 14:11:59;;;;;;;39.80;25.27;;;;;;;;;;5016301;28;20372;-71
2021/11/23 14:14:26;;;;;;;46.42;26.45;;;;;;;;;;5016162;28;20302;-71
2021/11/23 14:16:55;;;;;;;39.20;24.52;;;;;;;;;;5016430;28;20239;-71
2021/11/23 14:19:22;;;;;;;40.78;23.55;;;;;;;;;;5016044;28;20256;-71
2021/11/23 14:21:54;;;;;;;36.10;22.80;;;;;;;;;;5015684;28;20718;-71
2021/11/23 14:24:33;;;;;;;38.97;25.50;;;;;;;;;;5016106;28;20212;-72
2021/11/23 14:27:03;;;;;;;42.35;25.02;;;;;;;;;;5016270;28;20191;-71